Oakesdale, Washington
Current Conditions -  °F | °C
As of 3:53 PM on Saturday 25 Oct 2014 (Local Time) from KPUW Reporting Station
Clear Clear  
Wind Chill: 69°   Ceiling: Unl
Heat Index: 69°   Visibility: 10mi
Dew Point: 42°   Wind: 14mph
Humidity: 38%   Direction: 180°S
Pressure: 29.59"   Gusts: NA
Location:  47.13°N, 117.24°W
Report Text: KPUW 252253Z AUTO 18012KT 10SM CLR 21/06 A2959 RMK AO2 SLP012 T02060056
Loading
Personal Weather Stations






























Interactive Weather Map
Tropical Storm Tracking
New forecast layout! Learn more

10-Day Weather Forecast

Advertisements
Track Severe Weather on mobile